sensor_id;sensor_type;location;lat;lon;timestamp;temperature;humidity
43087;DHT22;28708;52.224;6.924;2022-08-21T00:02:15;18.20;99.90
43087;DHT22;28708;52.224;6.924;2022-08-21T00:04:41;18.20;99.90
43087;DHT22;28708;52.224;6.924;2022-08-21T00:07:07;18.10;99.90
43087;DHT22;28708;52.224;6.924;2022-08-21T00:09:33;18.20;99.90
43087;DHT22;28708;52.224;6.924;2022-08-21T00:11:59;18.10;99.90
43087;DHT22;28708;52.224;6.924;2022-08-21T00:14:25;18.20;99.90
43087;DHT22;28708;52.224;6.924;2022-08-21T00:16:51;18.00;99.90
43087;DHT22;28708;52.224;6.924;2022-08-21T00:19:17;18.00;99.90
43087;DHT22;28708;52.224;6.924;2022-08-21T00:21:42;18.00;99.90
43087;DHT22;28708;52.224;6.924;2022-08-21T00:24:08;18.00;99.90
43087;DHT22;28708;52.224;6.924;2022-08-21T00:26:34;17.90;99.90
43087;DHT22;28708;52.224;6.924;2022-08-21T00:29:00;17.90;99.90
43087;DHT22;28708;52.224;6.924;2022-08-21T00:31:26;17.80;99.90
43087;DHT22;28708;52.224;6.924;2022-08-21T00:33:52;17.80;99.90
43087;DHT22;28708;52.224;6.924;2022-08-21T00:36:17;17.70;99.90
43087;DHT22;28708;52.224;6.924;2022-08-21T00:38:43;17.70;99.90
43087;DHT22;28708;52.224;6.924;2022-08-21T00:41:10;17.70;99.90
43087;DHT22;28708;52.224;6.924;2022-08-21T00:43:38;17.60;99.90
43087;DHT22;28708;52.224;6.924;2022-08-21T00:46:05;17.60;99.90
43087;DHT22;28708;52.224;6.924;2022-08-21T00:48:32;17.60;99.90
43087;DHT22;28708;52.224;6.924;2022-08-21T00:51:13;17.60;99.90
43087;DHT22;28708;52.224;6.924;2022-08-21T00:53:43;17.40;99.90
43087;DHT22;28708;52.224;6.924;2022-08-21T00:56:10;17.50;99.90
43087;DHT22;28708;52.224;6.924;2022-08-21T00:58:39;17.40;99.90
43087;DHT22;28708;52.224;6.924;2022-08-21T01:01:07;17.40;99.90
43087;DHT22;28708;52.224;6.924;2022-08-21T01:03:35;17.40;99.90
43087;DHT22;28708;52.224;6.924;2022-08-21T01:06:04;17.40;99.90
43087;DHT22;28708;52.224;6.924;2022-08-21T01:08:30;17.40;99.90
43087;DHT22;28708;52.224;6.924;2022-08-21T01:10:56;17.40;99.90
43087;DHT22;28708;52.224;6.924;2022-08-21T01:13:25;17.30;99.90
43087;DHT22;28708;52.224;6.924;2022-08-21T01:15:54;17.20;99.90
43087;DHT22;28708;52.224;6.924;2022-08-21T01:18:21;17.10;99.90
43087;DHT22;28708;52.224;6.924;2022-08-21T01:21:00;17.00;99.90
43087;DHT22;28708;52.224;6.924;2022-08-21T01:23:26;17.10;99.90
43087;DHT22;28708;52.224;6.924;2022-08-21T01:25:52;17.10;99.90
43087;DHT22;28708;52.224;6.924;2022-08-21T01:28:19;17.10;99.90
43087;DHT22;28708;52.224;6.924;2022-08-21T01:30:46;17.10;99.90
43087;DHT22;28708;52.224;6.924;2022-08-21T01:33:13;17.10;99.90
43087;DHT22;28708;52.224;6.924;2022-08-21T01:35:38;17.10;99.90
43087;DHT22;28708;52.224;6.924;2022-08-21T01:38:04;17.10;99.90
43087;DHT22;28708;52.224;6.924;2022-08-21T01:40:30;17.10;99.90
43087;DHT22;28708;52.224;6.924;2022-08-21T01:42:56;17.10;99.90
43087;DHT22;28708;52.224;6.924;2022-08-21T01:45:22;17.00;99.90
43087;DHT22;28708;52.224;6.924;2022-08-21T01:47:48;17.10;99.90
43087;DHT22;28708;52.224;6.924;2022-08-21T01:50:16;17.20;99.90
43087;DHT22;28708;52.224;6.924;2022-08-21T01:52:42;17.20;99.90
43087;DHT22;28708;52.224;6.924;2022-08-21T01:55:09;17.20;99.90
43087;DHT22;28708;52.224;6.924;2022-08-21T01:57:35;17.20;99.90
43087;DHT22;28708;52.224;6.924;2022-08-21T02:00:04;17.10;99.90
43087;DHT22;28708;52.224;6.924;2022-08-21T02:02:38;17.00;99.90
43087;DHT22;28708;52.224;6.924;2022-08-21T02:05:06;16.90;99.90
43087;DHT22;28708;52.224;6.924;2022-08-21T02:07:41;16.80;99.90
43087;DHT22;28708;52.224;6.924;2022-08-21T02:10:09;16.80;99.90
43087;DHT22;28708;52.224;6.924;2022-08-21T02:12:36;16.80;99.90
43087;DHT22;28708;52.224;6.924;2022-08-21T02:15:04;16.80;99.90
43087;DHT22;28708;52.224;6.924;2022-08-21T02:17:58;16.80;99.90
43087;DHT22;28708;52.224;6.924;2022-08-21T02:20:33;16.90;99.90
43087;DHT22;28708;52.224;6.924;2022-08-21T02:23:00;16.90;99.90
43087;DHT22;28708;52.224;6.924;2022-08-21T02:25:28;16.80;99.90
43087;DHT22;28708;52.224;6.924;2022-08-21T02:27:54;16.80;99.90
43087;DHT22;28708;52.224;6.924;2022-08-21T02:30:29;16.90;99.90
43087;DHT22;28708;52.224;6.924;2022-08-21T02:32:57;16.90;99.90
43087;DHT22;28708;52.224;6.924;2022-08-21T02:35:24;16.80;99.90
43087;DHT22;28708;52.224;6.924;2022-08-21T02:37:56;16.70;99.90
43087;DHT22;28708;52.224;6.924;2022-08-21T02:40:27;16.60;99.90
43087;DHT22;28708;52.224;6.924;2022-08-21T02:42:53;16.60;99.90
43087;DHT22;28708;52.224;6.924;2022-08-21T02:45:20;16.50;99.90
43087;DHT22;28708;52.224;6.924;2022-08-21T02:47:50;16.50;99.90
43087;DHT22;28708;52.224;6.924;2022-08-21T02:50:25;16.50;99.90
43087;DHT22;28708;52.224;6.924;2022-08-21T02:52:52;16.50;99.90
43087;DHT22;28708;52.224;6.924;2022-08-21T02:55:22;16.60;99.90
43087;DHT22;28708;52.224;6.924;2022-08-21T02:57:48;16.50;99.90
43087;DHT22;28708;52.224;6.924;2022-08-21T03:00:15;16.60;99.90
43087;DHT22;28708;52.224;6.924;2022-08-21T03:02:41;16.50;99.90
43087;DHT22;28708;52.224;6.924;2022-08-21T03:05:09;16.60;99.90
43087;DHT22;28708;52.224;6.924;2022-08-21T03:07:36;16.60;99.90
43087;DHT22;28708;52.224;6.924;2022-08-21T03:10:03;16.50;99.90
43087;DHT22;28708;52.224;6.924;2022-08-21T03:12:29;16.40;99.90
43087;DHT22;28708;52.224;6.924;2022-08-21T03:14:55;16.40;99.90
43087;DHT22;28708;52.224;6.924;2022-08-21T03:17:21;16.50;99.90
43087;DHT22;28708;52.224;6.924;2022-08-21T03:19:47;16.50;99.90
43087;DHT22;28708;52.224;6.924;2022-08-21T03:22:13;16.40;99.90
43087;DHT22;28708;52.224;6.924;2022-08-21T03:24:38;16.40;99.90
43087;DHT22;28708;52.224;6.924;2022-08-21T03:27:04;16.40;99.90
43087;DHT22;28708;52.224;6.924;2022-08-21T03:29:30;16.30;99.90
43087;DHT22;28708;52.224;6.924;2022-08-21T03:31:56;16.30;99.90
43087;DHT22;28708;52.224;6.924;2022-08-21T03:34:22;16.30;99.90
43087;DHT22;28708;52.224;6.924;2022-08-21T03:36:48;16.30;99.90
43087;DHT22;28708;52.224;6.924;2022-08-21T03:39:17;16.30;99.90
43087;DHT22;28708;52.224;6.924;2022-08-21T03:41:44;16.40;99.90
43087;DHT22;28708;52.224;6.924;2022-08-21T03:44:10;16.40;99.90
43087;DHT22;28708;52.224;6.924;2022-08-21T03:46:35;16.40;99.90
43087;DHT22;28708;52.224;6.924;2022-08-21T03:49:01;16.40;99.90
43087;DHT22;28708;52.224;6.924;2022-08-21T03:51:27;16.30;99.90
43087;DHT22;28708;52.224;6.924;2022-08-21T03:53:53;16.20;99.90
43087;DHT22;28708;52.224;6.924;2022-08-21T03:56:19;16.20;99.90
43087;DHT22;28708;52.224;6.924;2022-08-21T03:58:45;16.20;99.90
43087;DHT22;28708;52.224;6.924;2022-08-21T04:01:11;16.10;99.90
43087;DHT22;28708;52.224;6.924;2022-08-21T04:03:38;16.10;99.90
43087;DHT22;28708;52.224;6.924;2022-08-21T04:06:04;16.10;99.90
43087;DHT22;28708;52.224;6.924;2022-08-21T04:08:30;16.10;99.90
43087;DHT22;28708;52.224;6.924;2022-08-21T04:10:57;16.10;99.90
43087;DHT22;28708;52.224;6.924;2022-08-21T04:13:24;16.10;99.90
43087;DHT22;28708;52.224;6.924;2022-08-21T04:15:50;16.00;99.90
43087;DHT22;28708;52.224;6.924;2022-08-21T04:18:16;15.90;99.90
43087;DHT22;28708;52.224;6.924;2022-08-21T04:20:43;15.90;99.90
43087;DHT22;28708;52.224;6.924;2022-08-21T04:23:10;15.90;99.90
43087;DHT22;28708;52.224;6.924;2022-08-21T04:25:36;15.90;99.90
43087;DHT22;28708;52.224;6.924;2022-08-21T04:28:03;16.00;99.90
43087;DHT22;28708;52.224;6.924;2022-08-21T04:30:29;15.90;99.90
43087;DHT22;28708;52.224;6.924;2022-08-21T04:32:56;16.00;99.90
43087;DHT22;28708;52.224;6.924;2022-08-21T04:35:24;16.00;99.90
43087;DHT22;28708;52.224;6.924;2022-08-21T04:37:50;15.90;99.90
43087;DHT22;28708;52.224;6.924;2022-08-21T04:40:18;15.90;99.90
43087;DHT22;28708;52.224;6.924;2022-08-21T04:42:54;15.90;99.90
43087;DHT22;28708;52.224;6.924;2022-08-21T04:45:26;15.90;99.90
43087;DHT22;28708;52.224;6.924;2022-08-21T04:47:56;15.90;99.90
43087;DHT22;28708;52.224;6.924;2022-08-21T04:50:29;15.90;99.90
43087;DHT22;28708;52.224;6.924;2022-08-21T04:53:07;16.00;99.90
43087;DHT22;28708;52.224;6.924;2022-08-21T04:55:34;15.90;99.90
43087;DHT22;28708;52.224;6.924;2022-08-21T04:58:01;15.90;99.90
43087;DHT22;28708;52.224;6.924;2022-08-21T05:00:27;15.90;99.90
43087;DHT22;28708;52.224;6.924;2022-08-21T05:02:54;15.80;99.90
43087;DHT22;28708;52.224;6.924;2022-08-21T05:05:24;15.80;99.90
43087;DHT22;28708;52.224;6.924;2022-08-21T05:07:51;15.80;99.90
43087;DHT22;28708;52.224;6.924;2022-08-21T05:10:18;15.90;99.90
43087;DHT22;28708;52.224;6.924;2022-08-21T05:12:45;15.90;99.90
43087;DHT22;28708;52.224;6.924;2022-08-21T05:15:12;15.90;99.90
43087;DHT22;28708;52.224;6.924;2022-08-21T05:17:39;16.00;99.90
43087;DHT22;28708;52.224;6.924;2022-08-21T05:20:05;16.10;99.90
43087;DHT22;28708;52.224;6.924;2022-08-21T05:22:31;16.10;99.90
43087;DHT22;28708;52.224;6.924;2022-08-21T05:24:57;16.20;99.90
43087;DHT22;28708;52.224;6.924;2022-08-21T05:27:23;16.10;99.90
43087;DHT22;28708;52.224;6.924;2022-08-21T05:29:49;16.20;99.90
43087;DHT22;28708;52.224;6.924;2022-08-21T05:32:15;16.20;99.90
43087;DHT22;28708;52.224;6.924;2022-08-21T05:34:41;16.20;99.90
43087;DHT22;28708;52.224;6.924;2022-08-21T05:37:09;16.20;99.90
43087;DHT22;28708;52.224;6.924;2022-08-21T05:39:35;16.30;99.90
43087;DHT22;28708;52.224;6.924;2022-08-21T05:42:01;16.30;99.90
43087;DHT22;28708;52.224;6.924;2022-08-21T05:44:27;16.30;99.90
43087;DHT22;28708;52.224;6.924;2022-08-21T05:46:53;16.20;99.90
43087;DHT22;28708;52.224;6.924;2022-08-21T05:49:18;16.20;99.90
43087;DHT22;28708;52.224;6.924;2022-08-21T05:51:44;16.20;99.90
43087;DHT22;28708;52.224;6.924;2022-08-21T05:54:10;16.20;99.90
43087;DHT22;28708;52.224;6.924;2022-08-21T05:56:36;16.30;99.90
43087;DHT22;28708;52.224;6.924;2022-08-21T05:59:02;16.40;99.90
43087;DHT22;28708;52.224;6.924;2022-08-21T06:01:28;16.50;99.90
43087;DHT22;28708;52.224;6.924;2022-08-21T06:03:54;16.40;99.90
43087;DHT22;28708;52.224;6.924;2022-08-21T06:06:20;16.40;99.90
43087;DHT22;28708;52.224;6.924;2022-08-21T06:08:46;16.40;99.90
43087;DHT22;28708;52.224;6.924;2022-08-21T06:11:12;16.40;99.90
43087;DHT22;28708;52.224;6.924;2022-08-21T06:13:38;16.40;99.90
43087;DHT22;28708;52.224;6.924;2022-08-21T06:16:13;16.50;99.90
43087;DHT22;28708;52.224;6.924;2022-08-21T06:18:40;16.50;99.90
43087;DHT22;28708;52.224;6.924;2022-08-21T06:21:06;16.50;99.90
43087;DHT22;28708;52.224;6.924;2022-08-21T06:23:33;16.50;99.90
43087;DHT22;28708;52.224;6.924;2022-08-21T06:26:01;16.50;99.90
43087;DHT22;28708;52.224;6.924;2022-08-21T06:28:27;16.70;99.90
43087;DHT22;28708;52.224;6.924;2022-08-21T06:30:53;16.80;99.90
43087;DHT22;28708;52.224;6.924;2022-08-21T06:33:19;16.90;99.90
43087;DHT22;28708;52.224;6.924;2022-08-21T06:35:45;17.00;99.90
43087;DHT22;28708;52.224;6.924;2022-08-21T06:38:11;17.00;99.90
43087;DHT22;28708;52.224;6.924;2022-08-21T06:40:37;17.10;99.90
43087;DHT22;28708;52.224;6.924;2022-08-21T06:43:08;17.20;99.90
43087;DHT22;28708;52.224;6.924;2022-08-21T06:45:35;17.30;99.90
43087;DHT22;28708;52.224;6.924;2022-08-21T06:48:01;17.30;99.90
43087;DHT22;28708;52.224;6.924;2022-08-21T06:50:27;17.50;99.90
43087;DHT22;28708;52.224;6.924;2022-08-21T06:53:09;17.60;99.90
43087;DHT22;28708;52.224;6.924;2022-08-21T06:55:39;17.60;99.90
43087;DHT22;28708;52.224;6.924;2022-08-21T06:58:06;17.70;99.90
43087;DHT22;28708;52.224;6.924;2022-08-21T07:00:33;17.90;99.90
43087;DHT22;28708;52.224;6.924;2022-08-21T07:02:59;17.90;99.90
43087;DHT22;28708;52.224;6.924;2022-08-21T07:05:28;17.90;99.90
43087;DHT22;28708;52.224;6.924;2022-08-21T07:07:54;18.10;99.90
43087;DHT22;28708;52.224;6.924;2022-08-21T07:10:20;18.20;99.90
43087;DHT22;28708;52.224;6.924;2022-08-21T07:12:46;18.30;99.90
43087;DHT22;28708;52.224;6.924;2022-08-21T07:15:12;18.40;99.90
43087;DHT22;28708;52.224;6.924;2022-08-21T07:17:38;18.50;99.90
43087;DHT22;28708;52.224;6.924;2022-08-21T07:20:05;18.60;99.90
43087;DHT22;28708;52.224;6.924;2022-08-21T07:22:32;18.70;99.90
43087;DHT22;28708;52.224;6.924;2022-08-21T07:24:58;18.80;99.90
43087;DHT22;28708;52.224;6.924;2022-08-21T07:27:24;19.00;99.90
43087;DHT22;28708;52.224;6.924;2022-08-21T07:29:50;19.10;99.90
43087;DHT22;28708;52.224;6.924;2022-08-21T07:32:15;19.30;99.90
43087;DHT22;28708;52.224;6.924;2022-08-21T07:34:41;19.40;99.90
43087;DHT22;28708;52.224;6.924;2022-08-21T07:37:07;19.50;99.90
43087;DHT22;28708;52.224;6.924;2022-08-21T07:39:33;19.60;99.90
43087;DHT22;28708;52.224;6.924;2022-08-21T07:41:59;19.70;99.90
43087;DHT22;28708;52.224;6.924;2022-08-21T07:44:25;19.80;99.90
43087;DHT22;28708;52.224;6.924;2022-08-21T07:46:50;19.90;99.90
43087;DHT22;28708;52.224;6.924;2022-08-21T07:49:16;20.00;99.90
43087;DHT22;28708;52.224;6.924;2022-08-21T07:51:42;20.10;99.90
43087;DHT22;28708;52.224;6.924;2022-08-21T07:54:08;20.20;99.90
43087;DHT22;28708;52.224;6.924;2022-08-21T07:56:34;20.20;99.90
43087;DHT22;28708;52.224;6.924;2022-08-21T07:59:00;20.20;99.90
43087;DHT22;28708;52.224;6.924;2022-08-21T08:01:28;20.30;99.90
43087;DHT22;28708;52.224;6.924;2022-08-21T08:03:55;20.50;99.90
43087;DHT22;28708;52.224;6.924;2022-08-21T08:06:22;20.30;99.90
43087;DHT22;28708;52.224;6.924;2022-08-21T08:08:48;20.30;99.90
43087;DHT22;28708;52.224;6.924;2022-08-21T08:11:14;20.30;99.90
43087;DHT22;28708;52.224;6.924;2022-08-21T08:13:48;20.40;99.90
43087;DHT22;28708;52.224;6.924;2022-08-21T08:16:15;20.40;99.90
43087;DHT22;28708;52.224;6.924;2022-08-21T08:18:41;20.60;99.90
43087;DHT22;28708;52.224;6.924;2022-08-21T08:21:08;20.60;99.90
43087;DHT22;28708;52.224;6.924;2022-08-21T08:23:34;20.80;99.90
43087;DHT22;28708;52.224;6.924;2022-08-21T08:26:00;20.90;99.90
43087;DHT22;28708;52.224;6.924;2022-08-21T08:28:28;21.00;99.90
43087;DHT22;28708;52.224;6.924;2022-08-21T08:30:54;20.90;99.90
43087;DHT22;28708;52.224;6.924;2022-08-21T08:33:21;20.80;99.90
43087;DHT22;28708;52.224;6.924;2022-08-21T08:35:49;21.00;99.90
43087;DHT22;28708;52.224;6.924;2022-08-21T08:38:17;21.00;99.90
43087;DHT22;28708;52.224;6.924;2022-08-21T08:43:34;21.30;99.90
43087;DHT22;28708;52.224;6.924;2022-08-21T08:46:04;21.30;99.90
43087;DHT22;28708;52.224;6.924;2022-08-21T08:48:35;21.10;99.90
43087;DHT22;28708;52.224;6.924;2022-08-21T08:51:05;21.00;99.90
43087;DHT22;28708;52.224;6.924;2022-08-21T08:53:49;21.00;99.90
43087;DHT22;28708;52.224;6.924;2022-08-21T08:56:28;21.10;99.90
43087;DHT22;28708;52.224;6.924;2022-08-21T08:58:58;21.40;99.90
43087;DHT22;28708;52.224;6.924;2022-08-21T09:01:25;21.50;99.90
43087;DHT22;28708;52.224;6.924;2022-08-21T09:03:51;21.60;99.90
43087;DHT22;28708;52.224;6.924;2022-08-21T09:09:18;21.80;99.90
43087;DHT22;28708;52.224;6.924;2022-08-21T09:11:59;22.60;99.90
43087;DHT22;28708;52.224;6.924;2022-08-21T09:15:07;24.10;99.90
43087;DHT22;28708;52.224;6.924;2022-08-21T09:17:53;26.30;99.90
43087;DHT22;28708;52.224;6.924;2022-08-21T09:20:38;27.20;99.90
43087;DHT22;28708;52.224;6.924;2022-08-21T09:25:38;25.00;99.90
43087;DHT22;28708;52.224;6.924;2022-08-21T09:28:11;24.80;99.90
43087;DHT22;28708;52.224;6.924;2022-08-21T09:30:39;26.50;99.90
43087;DHT22;28708;52.224;6.924;2022-08-21T09:33:06;26.70;99.90
43087;DHT22;28708;52.224;6.924;2022-08-21T09:35:32;27.20;99.90
43087;DHT22;28708;52.224;6.924;2022-08-21T09:38:06;26.00;99.90
43087;DHT22;28708;52.224;6.924;2022-08-21T09:40:42;25.50;99.90
43087;DHT22;28708;52.224;6.924;2022-08-21T09:45:37;25.70;99.90
43087;DHT22;28708;52.224;6.924;2022-08-21T09:48:23;26.70;99.90
43087;DHT22;28708;52.224;6.924;2022-08-21T09:50:50;27.70;99.60
43087;DHT22;28708;52.224;6.924;2022-08-21T09:53:27;28.50;97.90
43087;DHT22;28708;52.224;6.924;2022-08-21T09:55:54;28.70;95.90
43087;DHT22;28708;52.224;6.924;2022-08-21T09:58:44;28.80;95.50
43087;DHT22;28708;52.224;6.924;2022-08-21T10:01:24;28.70;94.00
43087;DHT22;28708;52.224;6.924;2022-08-21T10:04:09;29.10;93.70
43087;DHT22;28708;52.224;6.924;2022-08-21T10:06:36;30.00;91.60
43087;DHT22;28708;52.224;6.924;2022-08-21T10:11:34;28.90;91.60
43087;DHT22;28708;52.224;6.924;2022-08-21T10:17:01;28.30;91.00
43087;DHT22;28708;52.224;6.924;2022-08-21T10:22:06;30.50;88.50
43087;DHT22;28708;52.224;6.924;2022-08-21T10:25:26;29.30;87.20
43087;DHT22;28708;52.224;6.924;2022-08-21T10:28:06;28.10;91.20
43087;DHT22;28708;52.224;6.924;2022-08-21T10:30:50;28.40;90.60
43087;DHT22;28708;52.224;6.924;2022-08-21T10:36:08;29.80;88.10
43087;DHT22;28708;52.224;6.924;2022-08-21T10:38:54;28.80;89.50
43087;DHT22;28708;52.224;6.924;2022-08-21T10:44:05;29.90;88.20
43087;DHT22;28708;52.224;6.924;2022-08-21T10:49:28;29.20;87.50
43087;DHT22;28708;52.224;6.924;2022-08-21T10:58:06;28.20;88.80
43087;DHT22;28708;52.224;6.924;2022-08-21T11:00:46;28.60;88.20
43087;DHT22;28708;52.224;6.924;2022-08-21T11:03:26;29.10;86.60
43087;DHT22;28708;52.224;6.924;2022-08-21T11:05:59;28.40;87.60
43087;DHT22;28708;52.224;6.924;2022-08-21T11:08:33;28.40;88.10
43087;DHT22;28708;52.224;6.924;2022-08-21T11:16:33;29.00;87.40
43087;DHT22;28708;52.224;6.924;2022-08-21T11:19:07;28.00;88.30
43087;DHT22;28708;52.224;6.924;2022-08-21T11:26:57;27.70;87.30
43087;DHT22;28708;52.224;6.924;2022-08-21T11:29:38;26.40;90.90
43087;DHT22;28708;52.224;6.924;2022-08-21T11:32:20;26.90;90.60
43087;DHT22;28708;52.224;6.924;2022-08-21T11:35:23;28.40;89.10
43087;DHT22;28708;52.224;6.924;2022-08-21T11:52:13;26.90;90.00
43087;DHT22;28708;52.224;6.924;2022-08-21T11:55:14;26.20;90.90
43087;DHT22;28708;52.224;6.924;2022-08-21T11:57:59;26.10;91.70
43087;DHT22;28708;52.224;6.924;2022-08-21T12:00:42;25.70;91.40
43087;DHT22;28708;52.224;6.924;2022-08-21T12:03:15;25.80;92.30
43087;DHT22;28708;52.224;6.924;2022-08-21T12:05:51;26.20;92.80
43087;DHT22;28708;52.224;6.924;2022-08-21T12:08:29;26.20;91.70
43087;DHT22;28708;52.224;6.924;2022-08-21T12:11:05;25.50;91.90
43087;DHT22;28708;52.224;6.924;2022-08-21T12:13:35;25.30;92.90
43087;DHT22;28708;52.224;6.924;2022-08-21T12:16:10;25.00;93.00
43087;DHT22;28708;52.224;6.924;2022-08-21T12:18:36;25.00;93.70
43087;DHT22;28708;52.224;6.924;2022-08-21T12:21:27;25.30;93.00
43087;DHT22;28708;52.224;6.924;2022-08-21T12:24:15;25.70;93.00
43087;DHT22;28708;52.224;6.924;2022-08-21T12:29:23;25.90;93.10
43087;DHT22;28708;52.224;6.924;2022-08-21T12:32:02;25.90;92.60
43087;DHT22;28708;52.224;6.924;2022-08-21T12:34:35;25.70;92.30
43087;DHT22;28708;52.224;6.924;2022-08-21T12:37:20;25.50;93.20
43087;DHT22;28708;52.224;6.924;2022-08-21T12:39:49;25.80;93.50
43087;DHT22;28708;52.224;6.924;2022-08-21T12:42:19;25.70;92.80
43087;DHT22;28708;52.224;6.924;2022-08-21T12:44:47;25.50;93.60
43087;DHT22;28708;52.224;6.924;2022-08-21T12:48:04;25.80;92.80
43087;DHT22;28708;52.224;6.924;2022-08-21T12:50:23;25.80;92.50
43087;DHT22;28708;52.224;6.924;2022-08-21T12:53:02;25.80;91.90
43087;DHT22;28708;52.224;6.924;2022-08-21T12:55:33;25.70;92.90
43087;DHT22;28708;52.224;6.924;2022-08-21T12:57:59;25.60;93.50
43087;DHT22;28708;52.224;6.924;2022-08-21T13:00:28;25.90;93.40
43087;DHT22;28708;52.224;6.924;2022-08-21T13:02:55;26.20;92.60
43087;DHT22;28708;52.224;6.924;2022-08-21T13:05:31;26.30;92.50
43087;DHT22;28708;52.224;6.924;2022-08-21T13:07:58;26.10;92.10
43087;DHT22;28708;52.224;6.924;2022-08-21T13:10:28;25.50;92.90
43087;DHT22;28708;52.224;6.924;2022-08-21T13:12:57;25.70;93.10
43087;DHT22;28708;52.224;6.924;2022-08-21T13:15:39;26.10;92.70
43087;DHT22;28708;52.224;6.924;2022-08-21T13:18:06;26.10;93.20
43087;DHT22;28708;52.224;6.924;2022-08-21T13:20:38;26.40;92.60
43087;DHT22;28708;52.224;6.924;2022-08-21T13:23:25;26.70;92.50
43087;DHT22;28708;52.224;6.924;2022-08-21T13:25:51;26.80;91.30
43087;DHT22;28708;52.224;6.924;2022-08-21T13:28:16;26.20;92.10
43087;DHT22;28708;52.224;6.924;2022-08-21T13:30:46;26.10;92.70
43087;DHT22;28708;52.224;6.924;2022-08-21T13:33:19;26.00;92.60
43087;DHT22;28708;52.224;6.924;2022-08-21T13:38:51;26.20;93.50
43087;DHT22;28708;52.224;6.924;2022-08-21T13:41:29;26.20;92.40
43087;DHT22;28708;52.224;6.924;2022-08-21T13:43:58;26.10;92.20
43087;DHT22;28708;52.224;6.924;2022-08-21T13:46:29;26.10;93.00
43087;DHT22;28708;52.224;6.924;2022-08-21T13:48:59;26.20;92.90
43087;DHT22;28708;52.224;6.924;2022-08-21T13:51:27;26.30;92.10
43087;DHT22;28708;52.224;6.924;2022-08-21T13:53:53;26.20;92.30
43087;DHT22;28708;52.224;6.924;2022-08-21T13:56:28;26.10;92.00
43087;DHT22;28708;52.224;6.924;2022-08-21T13:58:55;25.90;92.10
43087;DHT22;28708;52.224;6.924;2022-08-21T14:01:24;26.10;91.70
43087;DHT22;28708;52.224;6.924;2022-08-21T14:03:54;26.30;91.90
43087;DHT22;28708;52.224;6.924;2022-08-21T14:06:27;26.70;91.70
43087;DHT22;28708;52.224;6.924;2022-08-21T14:09:41;26.80;90.80
43087;DHT22;28708;52.224;6.924;2022-08-21T14:11:48;27.00;90.30
43087;DHT22;28708;52.224;6.924;2022-08-21T14:16:44;27.50;89.50
43087;DHT22;28708;52.224;6.924;2022-08-21T14:19:23;27.70;87.50
43087;DHT22;28708;52.224;6.924;2022-08-21T14:21:49;27.50;88.20
43087;DHT22;28708;52.224;6.924;2022-08-21T14:27:05;28.10;87.50
43087;DHT22;28708;52.224;6.924;2022-08-21T14:29:35;28.40;86.30
43087;DHT22;28708;52.224;6.924;2022-08-21T14:32:11;27.90;87.90
43087;DHT22;28708;52.224;6.924;2022-08-21T14:34:37;27.50;88.80
43087;DHT22;28708;52.224;6.924;2022-08-21T14:37:03;27.50;88.00
43087;DHT22;28708;52.224;6.924;2022-08-21T14:39:29;27.80;88.70
43087;DHT22;28708;52.224;6.924;2022-08-21T14:41:57;28.00;85.40
43087;DHT22;28708;52.224;6.924;2022-08-21T14:44:23;28.00;84.60
43087;DHT22;28708;52.224;6.924;2022-08-21T14:46:49;28.00;84.70
43087;DHT22;28708;52.224;6.924;2022-08-21T14:49:15;27.70;86.60
43087;DHT22;28708;52.224;6.924;2022-08-21T14:51:40;27.40;87.10
43087;DHT22;28708;52.224;6.924;2022-08-21T14:54:06;26.70;87.90
43087;DHT22;28708;52.224;6.924;2022-08-21T14:56:34;26.80;87.90
43087;DHT22;28708;52.224;6.924;2022-08-21T14:59:06;27.30;87.00
43087;DHT22;28708;52.224;6.924;2022-08-21T15:01:43;27.20;85.60
43087;DHT22;28708;52.224;6.924;2022-08-21T15:04:09;27.00;86.30
43087;DHT22;28708;52.224;6.924;2022-08-21T15:06:35;27.30;86.20
43087;DHT22;28708;52.224;6.924;2022-08-21T15:09:01;26.90;85.80
43087;DHT22;28708;52.224;6.924;2022-08-21T15:11:30;26.60;86.90
43087;DHT22;28708;52.224;6.924;2022-08-21T15:14:00;26.60;87.80
43087;DHT22;28708;52.224;6.924;2022-08-21T15:16:27;26.70;88.40
43087;DHT22;28708;52.224;6.924;2022-08-21T15:18:53;26.70;88.30
43087;DHT22;28708;52.224;6.924;2022-08-21T15:21:19;26.60;88.40
43087;DHT22;28708;52.224;6.924;2022-08-21T15:23:45;26.50;89.10
43087;DHT22;28708;52.224;6.924;2022-08-21T15:26:11;26.40;88.00
43087;DHT22;28708;52.224;6.924;2022-08-21T15:28:37;26.10;88.30
43087;DHT22;28708;52.224;6.924;2022-08-21T15:31:04;26.10;89.20
43087;DHT22;28708;52.224;6.924;2022-08-21T15:33:30;26.10;88.60
43087;DHT22;28708;52.224;6.924;2022-08-21T15:35:56;26.00;88.90
43087;DHT22;28708;52.224;6.924;2022-08-21T15:38:23;26.00;90.50
43087;DHT22;28708;52.224;6.924;2022-08-21T15:40:49;26.10;88.90
43087;DHT22;28708;52.224;6.924;2022-08-21T15:43:28;26.00;87.80
43087;DHT22;28708;52.224;6.924;2022-08-21T15:45:54;25.90;88.10
43087;DHT22;28708;52.224;6.924;2022-08-21T15:48:20;25.90;87.40
43087;DHT22;28708;52.224;6.924;2022-08-21T15:50:47;26.00;87.60
43087;DHT22;28708;52.224;6.924;2022-08-21T15:53:13;26.00;88.00
43087;DHT22;28708;52.224;6.924;2022-08-21T15:55:40;26.00;89.30
43087;DHT22;28708;52.224;6.924;2022-08-21T15:58:06;26.00;87.80
43087;DHT22;28708;52.224;6.924;2022-08-21T16:00:34;26.20;87.00
43087;DHT22;28708;52.224;6.924;2022-08-21T16:03:03;26.10;86.50
43087;DHT22;28708;52.224;6.924;2022-08-21T16:05:29;26.00;86.60
43087;DHT22;28708;52.224;6.924;2022-08-21T16:07:57;25.80;87.70
43087;DHT22;28708;52.224;6.924;2022-08-21T16:10:24;25.60;88.20
43087;DHT22;28708;52.224;6.924;2022-08-21T16:13:02;25.40;89.40
43087;DHT22;28708;52.224;6.924;2022-08-21T16:15:29;25.60;90.10
43087;DHT22;28708;52.224;6.924;2022-08-21T16:17:55;25.60;89.70
43087;DHT22;28708;52.224;6.924;2022-08-21T16:20:24;25.80;89.40
43087;DHT22;28708;52.224;6.924;2022-08-21T16:22:51;25.60;88.40
43087;DHT22;28708;52.224;6.924;2022-08-21T16:25:18;25.60;89.40
43087;DHT22;28708;52.224;6.924;2022-08-21T16:27:46;25.50;88.60
43087;DHT22;28708;52.224;6.924;2022-08-21T16:30:14;25.50;89.00
43087;DHT22;28708;52.224;6.924;2022-08-21T16:32:41;25.40;89.90
43087;DHT22;28708;52.224;6.924;2022-08-21T16:35:10;25.30;90.20
43087;DHT22;28708;52.224;6.924;2022-08-21T16:37:38;25.30;90.50
43087;DHT22;28708;52.224;6.924;2022-08-21T16:40:05;25.20;90.20
43087;DHT22;28708;52.224;6.924;2022-08-21T16:42:31;25.20;90.30
43087;DHT22;28708;52.224;6.924;2022-08-21T16:44:57;25.00;90.60
43087;DHT22;28708;52.224;6.924;2022-08-21T16:47:24;25.10;91.00
43087;DHT22;28708;52.224;6.924;2022-08-21T16:49:49;25.20;91.10
43087;DHT22;28708;52.224;6.924;2022-08-21T16:52:16;25.20;91.20
43087;DHT22;28708;52.224;6.924;2022-08-21T16:54:42;25.10;91.20